Time;durP1;ratioP1;P1;durP2;ratioP2;P2;SDS_P1;SDS_P2;PMS_P1;PMS_P2;Temp;Humidity;BMP_temperature;BMP_pressure;BME280_temperature;BME280_humidity;BME280_pressure;Samples;Min_cycle;Max_cycle;Signal;HPM_P1;HPM_P2
2023/08/11 00:02:25;;;;;;;9.07;4.28;;;20.40;99.90;;;;;;5027442;28;20033;-91
2023/08/11 00:04:51;;;;;;;7.88;3.67;;;20.40;99.90;;;;;;5028691;28;20028;-91
2023/08/11 00:07:16;;;;;;;8.77;3.78;;;20.30;99.90;;;;;;5031942;28;20616;-92
2023/08/11 00:09:42;;;;;;;12.45;4.50;;;20.40;99.90;;;;;;5032404;28;20029;-91
2023/08/11 00:12:08;;;;;;;8.45;4.55;;;20.30;99.90;;;;;;5031915;28;20508;-91
2023/08/11 00:14:33;;;;;;;10.23;3.58;;;20.30;99.90;;;;;;5031901;28;20031;-91
2023/08/11 00:16:59;;;;;;;11.07;3.92;;;20.30;99.90;;;;;;5031867;28;20039;-91
2023/08/11 00:19:25;;;;;;;12.65;4.20;;;20.30;99.90;;;;;;5032204;28;20098;-91
2023/08/11 00:21:51;;;;;;;10.98;4.95;;;20.20;99.90;;;;;;5031729;28;20079;-91
2023/08/11 00:24:17;;;;;;;13.98;5.10;;;20.10;99.90;;;;;;5031370;28;20024;-93
2023/08/11 00:26:43;;;;;;;10.25;4.43;;;20.10;99.90;;;;;;5031593;28;20030;-91
2023/08/11 00:29:08;;;;;;;9.27;4.68;;;20.00;99.90;;;;;;5032661;28;20053;-92
2023/08/11 00:31:35;;;;;;;12.98;4.68;;;20.00;99.90;;;;;;5032107;28;20074;-93
2023/08/11 00:34:01;;;;;;;8.45;4.20;;;19.90;99.90;;;;;;5031988;28;20031;-92
2023/08/11 00:36:26;;;;;;;7.28;4.65;;;19.90;99.90;;;;;;5032382;28;20083;-93
2023/08/11 00:38:52;;;;;;;12.27;4.93;;;19.90;99.90;;;;;;5033329;28;20042;-92
2023/08/11 00:41:18;;;;;;;16.40;4.95;;;19.90;99.90;;;;;;5032013;28;20030;-93
2023/08/11 00:43:43;;;;;;;11.52;4.78;;;19.80;99.90;;;;;;5031601;28;20074;-91
2023/08/11 00:46:12;;;;;;;10.27;4.45;;;19.80;99.90;;;;;;5031310;28;20059;-92
2023/08/11 00:48:39;;;;;;;11.63;4.65;;;19.70;99.90;;;;;;5031327;28;20029;-89
2023/08/11 00:51:05;;;;;;;13.57;5.28;;;19.70;99.90;;;;;;5031725;28;20029;-92
2023/08/11 00:53:33;;;;;;;15.30;4.50;;;19.70;99.90;;;;;;5031308;28;20392;-93
2023/08/11 00:56:01;;;;;;;9.43;5.18;;;19.60;99.90;;;;;;5031298;28;20112;-93
2023/08/11 00:58:29;;;;;;;13.05;4.72;;;19.70;99.90;;;;;;5031014;28;20082;-92
2023/08/11 01:00:56;;;;;;;12.25;4.60;;;19.60;99.90;;;;;;5031086;28;20484;-92
2023/08/11 01:03:22;;;;;;;12.00;4.72;;;19.60;99.90;;;;;;5032452;28;20036;-93
2023/08/11 01:06:16;;;;;;;10.07;4.60;;;19.60;99.90;;;;;;5031180;28;20035;-91
2023/08/11 01:09:03;;;;;;;13.60;5.15;;;19.60;99.90;;;;;;5025719;28;20030;-92
2023/08/11 01:11:39;;;;;;;12.52;5.68;;;19.60;99.90;;;;;;5031134;28;20486;-93
2023/08/11 01:14:27;;;;;;;9.60;4.60;;;19.60;99.90;;;;;;5030845;28;20026;-93
2023/08/11 01:16:55;;;;;;;14.73;5.47;;;19.60;99.90;;;;;;5030824;28;20034;-93
2023/08/11 01:19:31;;;;;;;14.93;5.18;;;19.60;99.90;;;;;;5031017;28;20086;-94
2023/08/11 01:22:00;;;;;;;13.43;4.70;;;19.60;99.90;;;;;;5033764;28;20484;-94
2023/08/11 01:24:27;;;;;;;17.48;5.80;;;19.50;99.90;;;;;;5042793;28;20052;-93
2023/08/11 01:26:53;;;;;;;10.98;4.75;;;19.50;99.90;;;;;;5041825;28;20049;-92
2023/08/11 01:29:19;;;;;;;14.27;5.30;;;19.50;99.90;;;;;;5038954;28;20032;-95
2023/08/11 01:31:45;;;;;;;14.35;5.10;;;19.50;99.90;;;;;;5036625;28;20631;-92
2023/08/11 01:34:11;;;;;;;12.32;4.63;;;19.50;99.90;;;;;;5037991;28;20488;-92
2023/08/11 01:36:40;;;;;;;16.90;5.22;;;19.50;99.90;;;;;;5036222;28;20037;-95
2023/08/11 01:39:07;;;;;;;14.18;4.53;;;19.50;99.90;;;;;;5033646;28;20410;-94
2023/08/11 01:41:33;;;;;;;13.05;4.63;;;19.50;99.90;;;;;;5031444;28;20106;-94
2023/08/11 01:43:59;;;;;;;11.90;4.43;;;19.50;99.90;;;;;;5031278;28;20025;-93
2023/08/11 01:46:27;;;;;;;15.20;4.50;;;19.50;99.90;;;;;;5031489;28;20037;-93
2023/08/11 01:48:55;;;;;;;13.70;4.32;;;19.50;99.90;;;;;;5030980;28;20085;-93
2023/08/11 01:51:24;;;;;;;13.43;5.43;;;19.50;99.90;;;;;;5030911;28;20021;-92
2023/08/11 01:53:51;;;;;;;11.38;5.22;;;19.50;99.90;;;;;;5030634;28;20075;-92
2023/08/11 01:56:18;;;;;;;13.80;5.00;;;19.50;99.90;;;;;;5034934;28;20044;-92
2023/08/11 01:58:43;;;;;;;14.10;4.03;;;19.50;99.90;;;;;;5031525;28;20025;-92
2023/08/11 02:01:09;;;;;;;16.73;5.13;;;19.50;99.90;;;;;;5030696;28;20052;-92
2023/08/11 02:03:35;;;;;;;11.40;4.97;;;19.40;99.90;;;;;;5036632;28;20022;-94
2023/08/11 02:06:00;;;;;;;11.80;4.47;;;19.40;99.90;;;;;;5033602;28;20029;-93
2023/08/11 02:08:26;;;;;;;13.30;4.60;;;19.30;99.90;;;;;;5033923;28;20029;-93
2023/08/11 02:10:55;;;;;;;11.13;4.88;;;19.30;99.90;;;;;;5033723;28;20022;-93
2023/08/11 02:13:20;;;;;;;13.10;4.80;;;19.30;99.90;;;;;;5033689;28;20035;-91
2023/08/11 02:15:46;;;;;;;19.15;5.05;;;19.30;99.90;;;;;;5038539;28;20045;-92
2023/08/11 02:18:11;;;;;;;18.80;4.72;;;19.20;99.90;;;;;;5038018;28;20507;-91
2023/08/11 02:20:37;;;;;;;14.43;4.70;;;19.20;99.90;;;;;;5039067;28;20119;-91
2023/08/11 02:23:03;;;;;;;15.23;4.82;;;19.20;99.90;;;;;;5042389;28;20053;-92
2023/08/11 02:25:28;;;;;;;15.70;4.65;;;19.10;99.90;;;;;;5035446;28;20398;-93
2023/08/11 02:27:54;;;;;;;9.20;5.03;;;19.10;99.90;;;;;;5033114;28;20021;-93
2023/08/11 02:30:21;;;;;;;12.38;5.07;;;19.00;99.90;;;;;;5034641;28;20117;-91
2023/08/11 02:32:47;;;;;;;15.75;4.63;;;19.00;99.90;;;;;;5015752;28;20389;-90
2023/08/11 02:35:14;;;;;;;13.75;4.53;;;19.00;99.90;;;;;;5031618;28;20065;-91
2023/08/11 02:37:40;;;;;;;14.52;4.55;;;19.00;99.90;;;;;;5031431;28;20121;-91
2023/08/11 02:40:10;;;;;;;17.45;4.28;;;19.00;99.90;;;;;;5031930;28;20045;-91
2023/08/11 02:42:50;;;;;;;13.60;4.43;;;19.00;99.90;;;;;;5031200;28;20045;-90
2023/08/11 02:45:15;;;;;;;11.13;4.03;;;19.00;99.90;;;;;;5030051;28;20022;-91
2023/08/11 02:47:42;;;;;;;9.77;3.97;;;19.00;99.90;;;;;;5030124;28;20024;-92
2023/08/11 02:50:10;;;;;;;12.52;4.32;;;19.00;99.90;;;;;;5030337;28;20476;-91
2023/08/11 02:52:37;;;;;;;14.43;4.80;;;19.00;99.90;;;;;;5030347;28;20036;-91
2023/08/11 02:55:04;;;;;;;13.95;3.83;;;19.00;99.90;;;;;;5030236;28;20033;-94
2023/08/11 02:57:31;;;;;;;13.48;4.00;;;19.10;99.90;;;;;;5030134;28;20078;-94
2023/08/11 02:59:57;;;;;;;11.48;3.53;;;19.10;99.90;;;;;;5030299;28;20480;-94
2023/08/11 03:02:22;;;;;;;10.95;3.72;;;19.10;99.90;;;;;;5030335;28;20108;-93
2023/08/11 03:04:48;;;;;;;9.13;4.28;;;19.10;99.90;;;;;;5029976;28;20033;-92
2023/08/11 03:07:14;;;;;;;12.48;4.90;;;19.10;99.90;;;;;;5030188;28;20030;-93
2023/08/11 03:09:40;;;;;;;12.43;3.67;;;19.10;99.90;;;;;;5030018;28;20476;-92
2023/08/11 03:12:07;;;;;;;13.27;3.90;;;19.10;99.90;;;;;;5029713;28;20128;-91
2023/08/11 03:14:34;;;;;;;9.68;3.83;;;19.10;99.90;;;;;;5029864;28;20113;-93
2023/08/11 03:17:00;;;;;;;12.00;3.55;;;19.10;99.90;;;;;;5030244;28;20030;-92
2023/08/11 03:19:25;;;;;;;13.10;3.53;;;19.10;99.90;;;;;;5029926;28;20026;-92
2023/08/11 03:21:51;;;;;;;14.43;3.20;;;19.10;99.90;;;;;;5032560;28;20033;-92
2023/08/11 03:24:17;;;;;;;9.52;3.65;;;19.00;99.90;;;;;;5031709;28;20026;-92
2023/08/11 03:26:42;;;;;;;18.55;4.20;;;19.00;99.90;;;;;;5037491;28;20030;-93
2023/08/11 03:29:08;;;;;;;12.68;3.58;;;19.00;99.90;;;;;;5036481;28;20036;-93
2023/08/11 03:31:34;;;;;;;13.88;3.38;;;19.00;99.90;;;;;;5031113;28;20070;-93
2023/08/11 03:33:59;;;;;;;15.82;3.55;;;19.00;99.90;;;;;;5038729;28;20030;-93
2023/08/11 03:36:25;;;;;;;12.10;3.35;;;19.00;99.90;;;;;;5038079;28;20033;-94
2023/08/11 03:38:51;;;;;;;11.50;4.07;;;19.00;99.90;;;;;;5030304;28;20103;-93
2023/08/11 03:41:17;;;;;;;12.38;4.00;;;19.00;99.90;;;;;;5032269;28;20048;-93
2023/08/11 03:43:43;;;;;;;10.20;3.60;;;19.00;99.90;;;;;;5033439;28;20032;-93
2023/08/11 03:46:09;;;;;;;13.07;3.67;;;19.00;99.90;;;;;;5033213;28;20032;-95
2023/08/11 03:48:35;;;;;;;15.45;3.45;;;18.90;99.90;;;;;;5032586;28;20029;-92
2023/08/11 03:51:01;;;;;;;10.48;3.45;;;18.90;99.90;;;;;;5033677;28;20033;-93
2023/08/11 03:53:27;;;;;;;8.70;3.00;;;18.90;99.90;;;;;;5033505;28;20041;-94
2023/08/11 03:55:53;;;;;;;9.63;2.97;;;18.90;99.90;;;;;;5034087;28;20041;-94
2023/08/11 03:58:21;;;;;;;10.38;3.03;;;18.90;99.90;;;;;;5034777;28;20026;-94
2023/08/11 04:00:47;;;;;;;13.35;2.85;;;18.90;99.90;;;;;;5032629;28;20033;-95
2023/08/11 04:03:14;;;;;;;5.35;2.65;;;18.90;99.90;;;;;;5032400;28;20047;-91
2023/08/11 04:05:43;;;;;;;12.90;2.95;;;18.90;99.90;;;;;;5032436;28;20388;-92
2023/08/11 04:08:09;;;;;;;6.88;2.78;;;18.90;99.90;;;;;;5033193;28;20044;-93
2023/08/11 04:10:35;;;;;;;7.97;2.55;;;18.90;99.90;;;;;;5032389;28;20094;-95
2023/08/11 04:13:01;;;;;;;6.28;2.65;;;18.90;99.90;;;;;;5032758;28;20036;-92
2023/08/11 04:15:27;;;;;;;7.93;2.33;;;18.90;99.90;;;;;;5032567;28;20048;-93
2023/08/11 04:17:52;;;;;;;10.57;2.72;;;18.90;99.90;;;;;;5032693;28;20380;-91
2023/08/11 04:20:18;;;;;;;11.25;2.70;;;18.90;99.90;;;;;;5038780;28;20399;-90
2023/08/11 04:22:44;;;;;;;5.82;2.50;;;18.90;99.90;;;;;;5040414;28;20065;-91
2023/08/11 04:25:12;;;;;;;7.50;2.88;;;18.80;99.90;;;;;;5037612;28;20038;-92
2023/08/11 04:27:41;;;;;;;6.97;2.40;;;18.80;99.90;;;;;;5038157;28;20067;-91
2023/08/11 04:30:09;;;;;;;9.98;2.63;;;18.80;99.90;;;;;;5035314;28;20025;-93
2023/08/11 04:32:35;;;;;;;5.63;2.10;;;18.80;99.90;;;;;;5034815;28;20096;-92
2023/08/11 04:35:00;;;;;;;7.10;2.20;;;18.80;99.90;;;;;;5033733;28;20068;-92
2023/08/11 04:37:26;;;;;;;5.03;2.40;;;18.80;99.90;;;;;;5032974;28;20057;-91
2023/08/11 04:39:52;;;;;;;5.05;2.03;;;18.80;99.90;;;;;;5034462;28;20053;-91
2023/08/11 04:42:19;;;;;;;5.32;1.77;;;18.80;99.90;;;;;;5035295;28;20037;-90
2023/08/11 04:44:45;;;;;;;7.95;1.98;;;18.80;99.90;;;;;;5039410;28;20026;-91
2023/08/11 04:47:10;;;;;;;8.40;1.95;;;18.80;99.90;;;;;;5034383;28;20028;-93
2023/08/11 04:49:36;;;;;;;9.30;2.20;;;18.80;99.90;;;;;;5034770;28;20025;-91
2023/08/11 04:52:02;;;;;;;5.22;2.67;;;18.80;99.90;;;;;;5035230;28;20028;-93
2023/08/11 04:54:28;;;;;;;5.18;2.00;;;18.80;99.90;;;;;;5032580;28;20037;-92
2023/08/11 04:56:53;;;;;;;5.55;1.88;;;18.80;99.90;;;;;;5031988;28;20026;-91
2023/08/11 04:59:20;;;;;;;9.75;2.40;;;18.80;99.90;;;;;;5031408;28;20041;-92
2023/08/11 05:01:45;;;;;;;4.00;2.10;;;18.80;99.90;;;;;;5031559;28;20033;-92
2023/08/11 05:04:12;;;;;;;5.55;1.92;;;18.70;99.90;;;;;;5032047;28;20032;-92
2023/08/11 05:06:38;;;;;;;2.88;1.58;;;18.70;99.90;;;;;;5031353;28;20029;-93
2023/08/11 05:09:04;;;;;;;4.45;1.67;;;18.70;99.90;;;;;;5031687;28;20025;-93
2023/08/11 05:11:29;;;;;;;7.50;1.80;;;18.70;99.90;;;;;;5031415;28;20052;-91
2023/08/11 05:13:55;;;;;;;4.75;1.60;;;18.70;99.90;;;;;;5031452;28;20065;-92
2023/08/11 05:16:22;;;;;;;4.28;1.70;;;18.60;99.90;;;;;;5030708;28;20036;-91
2023/08/11 05:18:47;;;;;;;7.25;1.80;;;18.60;99.90;;;;;;5026188;28;20061;-92
2023/08/11 05:21:13;;;;;;;4.22;1.60;;;18.60;99.90;;;;;;5012498;28;20068;-94
2023/08/11 05:23:39;;;;;;;4.10;1.70;;;18.60;99.90;;;;;;5011930;28;20192;-92
2023/08/11 05:26:05;;;;;;;3.42;1.45;;;18.60;99.90;;;;;;5011324;28;20022;-94
2023/08/11 05:28:31;;;;;;;5.45;1.52;;;18.60;99.90;;;;;;5011737;28;20075;-93
2023/08/11 05:30:56;;;;;;;8.63;2.47;;;18.60;99.90;;;;;;5013385;28;20078;-91
2023/08/11 05:33:23;;;;;;;6.35;1.80;;;18.60;99.90;;;;;;5014907;28;20022;-92
2023/08/11 05:35:49;;;;;;;5.55;1.92;;;18.60;99.90;;;;;;5011277;28;20034;-93
2023/08/11 05:38:14;;;;;;;4.72;1.45;;;18.60;99.90;;;;;;5011520;28;20168;-94
2023/08/11 05:40:42;;;;;;;6.78;1.90;;;18.70;99.90;;;;;;5010987;28;20077;-93
2023/08/11 05:43:08;;;;;;;5.57;1.60;;;18.60;99.90;;;;;;5011209;28;20049;-94
2023/08/11 05:45:33;;;;;;;7.25;2.10;;;18.60;99.90;;;;;;5011649;28;20140;-92
2023/08/11 05:47:59;;;;;;;6.13;1.63;;;18.60;99.90;;;;;;5023432;28;20017;-93
2023/08/11 05:50:25;;;;;;;3.75;1.38;;;18.60;99.90;;;;;;5030520;28;20089;-93
2023/08/11 05:52:51;;;;;;;6.07;2.13;;;18.60;99.90;;;;;;5030386;28;20026;-92
2023/08/11 05:55:16;;;;;;;4.40;1.70;;;18.70;99.90;;;;;;5030455;28;20468;-93
2023/08/11 05:57:42;;;;;;;5.65;1.48;;;18.70;99.90;;;;;;5030447;28;20017;-92
2023/08/11 06:00:09;;;;;;;3.35;1.42;;;18.70;99.90;;;;;;5023706;28;20037;-94
2023/08/11 06:02:34;;;;;;;3.28;1.05;;;18.70;99.90;;;;;;5029507;28;20492;-91
2023/08/11 06:05:00;;;;;;;3.90;1.15;;;18.70;99.90;;;;;;5030084;28;20025;-91
2023/08/11 06:07:26;;;;;;;6.43;1.30;;;18.70;99.90;;;;;;5030698;28;20057;-93
2023/08/11 06:09:51;;;;;;;3.72;1.42;;;18.60;99.90;;;;;;5034212;28;20025;-93
2023/08/11 06:12:17;;;;;;;5.20;1.52;;;18.50;99.90;;;;;;5030955;28;20032;-94
2023/08/11 06:14:43;;;;;;;2.63;1.15;;;18.50;99.90;;;;;;5033462;28;20028;-93
2023/08/11 06:17:08;;;;;;;6.38;1.52;;;18.40;99.90;;;;;;5032999;28;20033;-93
2023/08/11 06:19:34;;;;;;;8.85;1.65;;;18.40;99.90;;;;;;5029378;28;20545;-93
2023/08/11 06:21:59;;;;;;;6.43;1.48;;;18.50;99.90;;;;;;5029618;28;20030;-93
2023/08/11 06:24:25;;;;;;;8.63;1.60;;;18.50;99.90;;;;;;5032105;28;20070;-93
2023/08/11 06:26:53;;;;;;;6.45;2.03;;;18.50;99.90;;;;;;5029745;28;20018;-94
2023/08/11 06:29:20;;;;;;;8.55;1.48;;;18.50;99.90;;;;;;5028470;28;20026;-94
2023/08/11 06:31:46;;;;;;;5.35;1.67;;;18.50;99.90;;;;;;5021772;28;20030;-93
2023/08/11 06:34:12;;;;;;;9.10;1.48;;;18.50;99.90;;;;;;5027732;28;20064;-92
2023/08/11 06:36:38;;;;;;;8.23;1.63;;;18.50;99.90;;;;;;5032660;28;20045;-93
2023/08/11 06:39:04;;;;;;;9.23;1.83;;;18.60;99.90;;;;;;5031283;28;20041;-94
2023/08/11 06:41:30;;;;;;;7.70;1.50;;;18.60;99.90;;;;;;5035286;28;20041;-93
2023/08/11 06:43:56;;;;;;;16.98;1.88;;;18.50;99.90;;;;;;5025782;28;20049;-91
2023/08/11 06:46:22;;;;;;;10.80;1.83;;;18.50;99.90;;;;;;5031852;28;20035;-93
2023/08/11 06:48:48;;;;;;;8.70;1.50;;;18.40;99.90;;;;;;5033737;28;20089;-95
2023/08/11 06:51:15;;;;;;;7.65;1.73;;;18.40;99.90;;;;;;5032242;28;20036;-94
2023/08/11 06:53:41;;;;;;;11.70;1.48;;;18.40;99.90;;;;;;5031435;28;20049;-93
2023/08/11 06:56:06;;;;;;;8.43;1.77;;;18.40;99.90;;;;;;5034003;28;20032;-95
2023/08/11 06:58:35;;;;;;;7.15;1.83;;;18.40;99.90;;;;;;5035721;28;20035;-96
2023/08/11 07:01:00;;;;;;;7.40;1.90;;;18.50;99.90;;;;;;5045780;28;20124;-95
2023/08/11 07:03:27;;;;;;;10.10;2.17;;;18.50;99.90;;;;;;5040265;28;20052;-95
2023/08/11 07:05:53;;;;;;;8.02;1.50;;;18.60;99.90;;;;;;5035640;28;20041;-95
2023/08/11 07:08:19;;;;;;;10.07;2.83;;;18.70;99.90;;;;;;5029729;28;20108;-95
2023/08/11 07:10:45;;;;;;;7.20;1.63;;;18.80;99.90;;;;;;5033848;28;20116;-92
2023/08/11 07:13:12;;;;;;;9.82;1.88;;;18.80;99.90;;;;;;5037381;28;20042;-95
2023/08/11 07:15:44;;;;;;;6.85;1.73;;;18.90;99.90;;;;;;5045457;28;20025;-92
2023/08/11 07:18:11;;;;;;;11.50;1.77;;;18.90;99.90;;;;;;5044659;27;20036;-95
2023/08/11 07:20:46;;;;;;;5.53;1.58;;;19.00;99.90;;;;;;5048520;27;20032;-94
2023/08/11 07:23:11;;;;;;;6.93;1.85;;;19.10;99.90;;;;;;5046607;28;20029;-95
2023/08/11 07:25:38;;;;;;;9.13;1.40;;;19.20;99.90;;;;;;5048838;28;20017;-95
2023/08/11 07:28:04;;;;;;;7.25;1.90;;;19.30;99.90;;;;;;5045043;28;20037;-95
2023/08/11 07:30:30;;;;;;;10.00;1.70;;;19.30;99.90;;;;;;5036778;28;20021;-93
2023/08/11 07:32:57;;;;;;;6.75;1.83;;;19.30;99.90;;;;;;5040188;28;20097;-94
2023/08/11 07:35:23;;;;;;;11.20;1.88;;;19.40;99.90;;;;;;5040108;27;20021;-95
2023/08/11 07:37:49;;;;;;;7.03;2.03;;;19.40;99.90;;;;;;5039959;28;20148;-95
2023/08/11 07:40:16;;;;;;;6.90;1.33;;;19.40;99.90;;;;;;5034609;28;20128;-94
2023/08/11 07:42:42;;;;;;;7.65;1.85;;;19.40;99.90;;;;;;5035175;28;20022;-93
2023/08/11 07:45:08;;;;;;;12.05;1.88;;;19.40;99.90;;;;;;5037891;28;20021;-95
2023/08/11 07:47:33;;;;;;;6.95;1.65;;;19.40;99.90;;;;;;5033706;28;20022;-94
2023/08/11 07:49:59;;;;;;;7.28;1.63;;;19.50;99.90;;;;;;5033911;28;20047;-95
2023/08/11 07:52:25;;;;;;;7.47;1.75;;;19.50;99.90;;;;;;5034188;28;20042;-93
2023/08/11 07:54:51;;;;;;;13.50;1.70;;;19.60;99.90;;;;;;5009847;28;20116;-95
2023/08/11 07:57:16;;;;;;;6.75;1.73;;;19.60;99.90;;;;;;5035539;28;20086;-95
2023/08/11 07:59:42;;;;;;;9.90;2.15;;;19.70;99.90;;;;;;5033996;27;20116;-94
2023/08/11 08:02:08;;;;;;;9.05;1.70;;;19.70;99.90;;;;;;5037367;28;20064;-95
2023/08/11 08:04:34;;;;;;;9.13;2.03;;;19.70;99.90;;;;;;5046504;27;20076;-93
2023/08/11 08:07:00;;;;;;;9.52;1.92;;;19.70;99.90;;;;;;5032866;28;20075;-94
2023/08/11 08:09:25;;;;;;;13.45;2.50;;;19.70;99.90;;;;;;5034002;28;20041;-93
2023/08/11 08:11:53;;;;;;;5.32;1.30;;;19.70;99.90;;;;;;5035393;28;20021;-96
2023/08/11 08:14:19;;;;;;;7.78;2.00;;;19.80;99.90;;;;;;5066496;27;20007;-94
2023/08/11 08:16:45;;;;;;;10.80;2.05;;;19.70;99.90;;;;;;5076095;28;20560;-95
2023/08/11 08:19:12;;;;;;;5.38;1.73;;;19.70;99.90;;;;;;5042602;28;20041;-95
2023/08/11 08:21:38;;;;;;;14.20;2.72;;;19.70;99.90;;;;;;5042167;28;20098;-95
2023/08/11 08:24:05;;;;;;;8.45;1.90;;;19.70;99.90;;;;;;5041597;28;20048;-94
2023/08/11 08:26:31;;;;;;;12.23;2.42;;;19.80;99.90;;;;;;5041743;28;20030;-93
2023/08/11 08:28:57;;;;;;;5.47;2.00;;;19.80;99.90;;;;;;5035518;27;20391;-93
2023/08/11 08:31:23;;;;;;;10.23;2.05;;;19.80;99.90;;;;;;5034468;28;20061;-94
2023/08/11 08:33:48;;;;;;;10.23;2.20;;;19.90;99.90;;;;;;5032818;28;20112;-94
2023/08/11 08:36:14;;;;;;;11.60;2.72;;;19.90;99.90;;;;;;5036882;27;20070;-91
2023/08/11 08:38:40;;;;;;;9.95;1.70;;;19.90;99.90;;;;;;5031208;28;20109;-95
2023/08/11 08:41:08;;;;;;;10.90;1.80;;;20.00;99.90;;;;;;5035272;28;20061;-92
2023/08/11 08:43:35;;;;;;;9.88;1.80;;;20.00;99.90;;;;;;5033837;28;20022;-94
2023/08/11 08:46:03;;;;;;;21.48;2.58;;;20.00;99.90;;;;;;5042369;27;20025;-94
2023/08/11 08:48:53;;;;;;;9.07;2.13;;;20.10;99.90;;;;;;5036758;28;20029;-93
2023/08/11 08:51:20;;;;;;;12.18;1.80;;;20.20;99.90;;;;;;5035549;27;20021;-95
2023/08/11 08:53:46;;;;;;;5.40;1.80;;;20.30;99.90;;;;;;5035070;28;20082;-94
2023/08/11 08:56:13;;;;;;;8.82;2.13;;;20.40;99.20;;;;;;5040424;28;20036;-94
2023/08/11 08:58:41;;;;;;;12.57;1.60;;;20.60;99.30;;;;;;5041346;28;20440;-93
2023/08/11 09:01:09;;;;;;;11.95;1.75;;;20.70;97.30;;;;;;5041930;28;20042;-94
2023/08/11 09:03:36;;;;;;;7.30;1.83;;;20.70;96.40;;;;;;5043214;28;20025;-93
2023/08/11 09:06:06;;;;;;;11.55;2.28;;;20.70;95.80;;;;;;5054183;27;20074;-96
2023/08/11 09:08:32;;;;;;;9.00;3.00;;;20.80;95.10;;;;;;5036225;28;20025;-95
2023/08/11 09:10:58;;;;;;;10.75;2.05;;;20.80;94.70;;;;;;5038558;28;20025;-96
2023/08/11 09:13:26;;;;;;;10.20;2.17;;;20.80;94.20;;;;;;5036663;28;20034;-96
2023/08/11 09:15:52;;;;;;;6.88;1.70;;;20.90;94.10;;;;;;5044968;27;20017;-95
2023/08/11 09:18:18;;;;;;;10.57;3.10;;;21.00;93.90;;;;;;5035912;28;20059;-94
2023/08/11 09:20:48;;;;;;;6.70;1.33;;;21.20;93.70;;;;;;5025659;28;20121;-95
2023/08/11 09:23:17;;;;;;;16.70;2.28;;;21.40;93.60;;;;;;5032913;28;20026;-94
2023/08/11 09:25:43;;;;;;;16.95;2.95;;;21.60;93.00;;;;;;5045722;28;20064;-95
2023/08/11 09:28:09;;;;;;;11.88;3.05;;;21.70;92.40;;;;;;5039410;28;20025;-94
2023/08/11 09:30:34;;;;;;;13.10;2.10;;;21.90;91.80;;;;;;5035766;28;20014;-96
2023/08/11 09:33:01;;;;;;;9.70;3.30;;;21.90;91.20;;;;;;5035766;28;20006;-95
2023/08/11 09:35:27;;;;;;;11.32;3.08;;;21.90;91.00;;;;;;5033925;27;20065;-95
2023/08/11 09:37:54;;;;;;;7.15;2.10;;;21.80;90.80;;;;;;5036149;28;20028;-95
2023/08/11 09:40:21;;;;;;;8.82;2.42;;;21.80;90.90;;;;;;5041266;27;20045;-94
2023/08/11 09:42:47;;;;;;;9.68;2.15;;;21.80;90.90;;;;;;5031363;28;20037;-96
2023/08/11 09:45:13;;;;;;;11.85;2.22;;;21.80;90.90;;;;;;5032341;28;20029;-96
2023/08/11 09:47:39;;;;;;;8.68;2.28;;;21.80;90.80;;;;;;5031206;28;20430;-95
2023/08/11 09:50:05;;;;;;;12.55;2.40;;;21.80;90.40;;;;;;5033152;27;20030;-94
2023/08/11 09:52:34;;;;;;;7.78;1.75;;;21.70;90.20;;;;;;5030403;28;20021;-96
2023/08/11 09:55:06;;;;;;;5.05;1.67;;;21.80;90.20;;;;;;5032962;28;20029;-95
2023/08/11 09:57:34;;;;;;;11.13;2.17;;;22.00;90.00;;;;;;5036612;28;20022;-96
2023/08/11 10:00:01;;;;;;;12.07;2.03;;;22.10;89.00;;;;;;5049347;28;20041;-96
2023/08/11 10:02:31;;;;;;;8.25;2.53;;;22.20;87.60;;;;;;5047868;28;20025;-94
2023/08/11 10:05:06;;;;;;;11.02;2.53;;;22.30;86.90;;;;;;5043670;28;20029;-95
2023/08/11 10:08:10;;;;;;;10.48;2.85;;;22.50;86.90;;;;;;5049445;28;20067;-94
2023/08/11 10:10:37;;;;;;;14.27;4.43;;;22.70;85.70;;;;;;5061446;28;20038;-94
2023/08/11 10:13:08;;;;;;;12.60;3.20;;;22.80;85.10;;;;;;5046994;28;20026;-95
2023/08/11 10:15:35;;;;;;;10.02;2.63;;;22.90;83.90;;;;;;5051012;27;20026;-96
2023/08/11 10:18:06;;;;;;;10.88;2.58;;;22.70;81.80;;;;;;5053326;28;20021;-94
2023/08/11 10:20:32;;;;;;;10.90;3.22;;;22.50;82.20;;;;;;5053041;28;20029;-96
2023/08/11 10:22:58;;;;;;;15.63;3.00;;;22.50;83.00;;;;;;5052371;28;20097;-94
2023/08/11 10:25:25;;;;;;;8.73;1.98;;;22.50;83.20;;;;;;5053329;28;20060;-95
2023/08/11 10:27:51;;;;;;;5.15;2.03;;;22.60;83.50;;;;;;5053958;28;20113;-91
2023/08/11 10:30:17;;;;;;;9.95;2.45;;;22.80;82.70;;;;;;5079228;27;20025;-95
2023/08/11 10:32:43;;;;;;;7.90;1.88;;;22.80;82.20;;;;;;5158011;27;20011;-90
2023/08/11 10:35:51;;;;;;;7.35;2.08;;;22.70;81.60;;;;;;5137456;27;20064;-95
2023/08/11 10:38:29;;;;;;;10.68;2.08;;;22.70;81.40;;;;;;5052120;28;20002;-94
2023/08/11 10:41:05;;;;;;;10.52;2.45;;;23.00;81.30;;;;;;5054862;28;20030;-92
2023/08/11 10:43:34;;;;;;;12.13;2.15;;;23.10;80.70;;;;;;5051740;28;20028;-91
2023/08/11 10:46:26;;;;;;;10.48;2.30;;;23.20;78.50;;;;;;5098038;27;20489;-94
2023/08/11 10:48:53;;;;;;;9.50;2.15;;;23.30;78.70;;;;;;5138840;27;20020;-93
2023/08/11 10:51:32;;;;;;;5.63;1.80;;;23.50;78.20;;;;;;5142794;27;20058;-94
2023/08/11 10:54:51;;;;;;;7.45;1.63;;;23.70;77.50;;;;;;5143305;27;20024;-93
2023/08/11 10:57:20;;;;;;;8.70;1.92;;;23.90;76.90;;;;;;5145037;27;20043;-94
2023/08/11 10:59:46;;;;;;;13.15;2.28;;;24.10;76.30;;;;;;5139026;27;20062;-93
2023/08/11 11:02:13;;;;;;;10.00;1.77;;;24.20;76.10;;;;;;5039801;28;20026;-96
2023/08/11 11:04:41;;;;;;;6.75;2.10;;;24.40;75.10;;;;;;5032866;28;20077;-96
2023/08/11 11:07:06;;;;;;;7.07;1.92;;;24.40;74.00;;;;;;5033729;28;20049;-94
2023/08/11 11:09:32;;;;;;;9.80;1.83;;;24.40;73.40;;;;;;5034368;28;20026;-94
2023/08/11 11:11:58;;;;;;;9.38;1.98;;;24.50;73.80;;;;;;5125038;28;20035;-96
2023/08/11 11:14:24;;;;;;;9.55;2.00;;;24.70;73.90;;;;;;5142492;27;20041;-94
2023/08/11 11:16:51;;;;;;;8.40;1.80;;;24.90;73.10;;;;;;5141957;27;20134;-96
2023/08/11 11:19:17;;;;;;;10.55;2.17;;;25.00;72.90;;;;;;5140439;27;20040;-94
2023/08/11 11:21:43;;;;;;;8.88;2.08;;;25.00;71.90;;;;;;5141367;27;20047;-96
2023/08/11 11:24:11;;;;;;;9.13;2.50;;;24.70;71.40;;;;;;5156062;27;20023;-92
2023/08/11 11:26:37;;;;;;;11.32;1.95;;;24.60;72.50;;;;;;5143897;27;20023;-93
2023/08/11 11:29:05;;;;;;;10.52;2.00;;;24.50;72.90;;;;;;5145927;27;20505;-93
2023/08/11 11:31:32;;;;;;;10.27;2.17;;;24.60;72.90;;;;;;5080169;27;20029;-93
2023/08/11 11:33:58;;;;;;;10.52;2.42;;;24.70;72.70;;;;;;5031915;28;20073;-93
2023/08/11 11:36:24;;;;;;;11.43;2.33;;;25.00;72.20;;;;;;5032566;28;20116;-94
2023/08/11 11:38:51;;;;;;;7.45;1.90;;;25.00;70.80;;;;;;5030572;28;20049;-93
2023/08/11 11:41:18;;;;;;;8.32;1.77;;;25.00;70.80;;;;;;5080404;28;20054;-95
2023/08/11 11:43:46;;;;;;;9.15;2.10;;;25.10;70.30;;;;;;5067410;27;20037;-94
2023/08/11 11:46:15;;;;;;;7.45;1.60;;;25.10;70.60;;;;;;5032085;28;20070;-94
2023/08/11 11:48:49;;;;;;;6.25;1.65;;;25.30;70.20;;;;;;5042254;28;20006;-92
2023/08/11 11:51:17;;;;;;;5.20;1.60;;;25.60;69.70;;;;;;5038842;28;20486;-95
2023/08/11 11:53:43;;;;;;;8.68;2.58;;;25.50;69.00;;;;;;5031878;28;20025;-94
2023/08/11 11:56:14;;;;;;;12.80;2.00;;;25.50;69.10;;;;;;5037280;28;20032;-95
2023/08/11 11:58:40;;;;;;;5.03;1.67;;;25.70;69.10;;;;;;5032494;28;20028;-94
2023/08/11 12:01:16;;;;;;;7.70;2.13;;;26.00;69.00;;;;;;5067248;27;20039;-95
2023/08/11 12:03:47;;;;;;;6.38;1.70;;;26.10;68.30;;;;;;5139626;27;20050;-93
2023/08/11 12:06:14;;;;;;;10.48;2.22;;;26.00;67.70;;;;;;5139866;27;20054;-94
2023/08/11 12:08:43;;;;;;;6.60;1.88;;;25.80;66.90;;;;;;5140167;27;20115;-94
2023/08/11 12:11:15;;;;;;;7.30;1.80;;;25.70;67.10;;;;;;5103982;27;20025;-93
2023/08/11 12:13:45;;;;;;;8.52;1.85;;;25.60;67.00;;;;;;5034443;28;20034;-94
2023/08/11 12:16:14;;;;;;;7.45;1.92;;;25.80;67.10;;;;;;5035557;28;20074;-93
2023/08/11 12:18:44;;;;;;;9.73;2.47;;;26.10;66.80;;;;;;5033370;28;20061;-94
2023/08/11 12:21:12;;;;;;;8.75;2.10;;;26.10;65.80;;;;;;5033584;28;20491;-93
2023/08/11 12:23:41;;;;;;;7.10;1.85;;;26.10;65.50;;;;;;5033281;28;20082;-93
2023/08/11 12:26:07;;;;;;;5.32;1.50;;;26.30;65.30;;;;;;5034353;28;20026;-93
2023/08/11 12:28:33;;;;;;;5.78;2.15;;;26.30;65.30;;;;;;5033280;28;20029;-93
2023/08/11 12:30:59;;;;;;;9.60;2.58;;;26.20;65.00;;;;;;5034022;28;20022;-94
2023/08/11 12:33:25;;;;;;;12.77;2.50;;;26.20;65.30;;;;;;5041832;28;20025;-94
2023/08/11 12:35:51;;;;;;;5.35;1.85;;;26.10;65.20;;;;;;5044259;27;20041;-94
2023/08/11 12:38:17;;;;;;;8.60;1.75;;;26.00;65.40;;;;;;5038807;28;20021;-94
2023/08/11 12:40:43;;;;;;;8.80;1.50;;;26.00;65.20;;;;;;5035108;27;20092;-92
2023/08/11 12:43:09;;;;;;;5.50;1.63;;;26.00;63.60;;;;;;5033408;28;20041;-94
2023/08/11 12:45:36;;;;;;;10.27;2.15;;;25.80;63.00;;;;;;5034399;28;20038;-94